createdAt,value
2022-08-11T00:02:00.184Z,39.84
2022-08-11T00:04:34.533Z,39.85
2022-08-11T00:07:04.327Z,39.74
2022-08-11T00:09:39.485Z,39.79
2022-08-11T00:12:14.730Z,39.95
2022-08-11T00:14:42.811Z,39.87
2022-08-11T00:17:12.979Z,40.00
2022-08-11T00:20:12.972Z,40.35
2022-08-11T00:22:32.905Z,39.98
2022-08-11T00:25:08.923Z,40.04
2022-08-11T00:27:38.113Z,40.07
2022-08-11T00:30:06.237Z,40.16
2022-08-11T00:32:34.097Z,40.19
2022-08-11T00:35:51.718Z,40.49
2022-08-11T00:37:52.577Z,40.37
2022-08-11T00:40:28.225Z,40.44
2022-08-11T00:43:03.655Z,40.69
2022-08-11T00:45:40.266Z,40.36
2022-08-11T00:48:25.259Z,40.66
2022-08-11T00:51:02.163Z,40.71
2022-08-11T00:53:38.897Z,40.95
2022-08-11T00:56:42.949Z,40.75
2022-08-11T00:59:34.178Z,40.79
2022-08-11T01:02:14.963Z,40.80
2022-08-11T01:05:03.283Z,41.24
2022-08-11T01:08:01.952Z,40.82
2022-08-11T01:10:41.842Z,41.10
2022-08-11T01:13:16.143Z,41.08
2022-08-11T01:16:01.315Z,41.36
2022-08-11T01:18:44.658Z,41.12
2022-08-11T01:21:17.310Z,41.20
2022-08-11T01:24:22.114Z,41.61
2022-08-11T01:27:19.151Z,41.35
2022-08-11T01:30:10.364Z,41.45
2022-08-11T01:33:07.951Z,41.44
2022-08-11T01:35:56.334Z,41.50
2022-08-11T01:38:55.913Z,41.58
2022-08-11T01:41:48.943Z,41.84
2022-08-11T01:44:40.306Z,41.57
2022-08-11T01:47:53.076Z,41.89
2022-08-11T01:50:42.494Z,41.72
2022-08-11T01:53:26.007Z,41.87
2022-08-11T01:56:03.047Z,41.96
2022-08-11T01:58:44.170Z,41.96
2022-08-11T02:01:45.793Z,42.10
2022-08-11T02:04:25.254Z,42.01
2022-08-11T02:07:22.398Z,42.16
2022-08-11T02:10:35.159Z,42.40
2022-08-11T02:13:28.639Z,42.14
2022-08-11T02:16:20.632Z,42.05
2022-08-11T02:19:29.319Z,42.47
2022-08-11T02:22:42.245Z,42.52
2022-08-11T02:25:24.745Z,42.35
2022-08-11T02:28:05.965Z,42.37
2022-08-11T02:30:40.537Z,42.67
2022-08-11T02:33:23.412Z,42.33
2022-08-11T02:36:10.453Z,42.30
2022-08-11T02:39:00.836Z,42.72
2022-08-11T02:41:48.889Z,42.48
2022-08-11T02:44:24.251Z,42.78
2022-08-11T02:47:14.445Z,42.74
2022-08-11T02:50:00.018Z,42.81
2022-08-11T02:52:37.134Z,42.64
2022-08-11T02:55:56.589Z,43.08
2022-08-11T02:59:08.932Z,42.97
2022-08-11T03:02:04.793Z,43.06
2022-08-11T03:05:02.745Z,42.86
2022-08-11T03:07:40.553Z,43.20
2022-08-11T03:10:34.170Z,43.10
2022-08-11T03:13:29.015Z,43.26
2022-08-11T03:16:39.961Z,43.20
2022-08-11T03:19:18.514Z,43.26
2022-08-11T03:22:03.665Z,43.49
2022-08-11T03:24:54.400Z,43.61
2022-08-11T03:27:37.360Z,43.29
2022-08-11T03:30:17.817Z,43.53
2022-08-11T03:33:32.162Z,43.51
2022-08-11T03:36:12.790Z,43.42
2022-08-11T03:39:00.209Z,43.65
2022-08-11T03:42:02.027Z,43.86
2022-08-11T03:44:59.948Z,43.87
2022-08-11T03:47:33.174Z,43.58
2022-08-11T03:50:17.144Z,43.81
2022-08-11T03:53:10.238Z,43.71
2022-08-11T03:56:11.563Z,43.79
2022-08-11T03:59:05.850Z,43.86
2022-08-11T04:01:58.903Z,44.25
2022-08-11T04:04:51.274Z,44.20
2022-08-11T04:07:39.493Z,44.03
2022-08-11T04:10:43.252Z,44.36
2022-08-11T04:13:28.170Z,44.08
2022-08-11T04:16:16.591Z,44.26
2022-08-11T04:18:45.921Z,44.05
2022-08-11T04:21:50.045Z,44.52
2022-08-11T04:24:39.633Z,44.19
2022-08-11T04:27:37.107Z,44.43
2022-08-11T04:30:27.847Z,44.52
2022-08-11T04:33:13.786Z,44.75
2022-08-11T04:36:15.393Z,44.66
2022-08-11T04:39:10.989Z,44.71
2022-08-11T04:43:00.445Z,45.06
2022-08-11T04:45:52.954Z,45.00
2022-08-11T04:48:45.546Z,44.75
2022-08-11T04:52:03.094Z,45.31
2022-08-11T04:55:17.003Z,45.00
2022-08-11T04:58:09.266Z,44.91
2022-08-11T05:01:36.596Z,45.15
2022-08-11T05:04:28.560Z,45.06
2022-08-11T05:07:10.381Z,45.44
2022-08-11T05:09:58.630Z,45.58
2022-08-11T05:12:42.511Z,45.52
2022-08-11T05:15:51.575Z,45.46
2022-08-11T05:18:42.125Z,45.55
2022-08-11T05:21:44.423Z,45.55
2022-08-11T05:24:57.465Z,46.08
2022-08-11T05:28:05.780Z,45.86
2022-08-11T05:30:51.451Z,46.16
2022-08-11T05:33:44.254Z,45.98
2022-08-11T05:36:35.303Z,45.51
2022-08-11T05:39:36.199Z,45.62
2022-08-11T05:42:30.166Z,45.95
2022-08-11T05:45:22.681Z,45.87
2022-08-11T05:48:09.427Z,46.13
2022-08-11T05:50:55.532Z,46.12
2022-08-11T05:53:46.141Z,46.16
2022-08-11T05:56:18.458Z,46.33
2022-08-11T05:58:50.974Z,45.90
2022-08-11T06:01:26.308Z,46.01
2022-08-11T06:04:14.332Z,45.86
2022-08-11T06:06:56.201Z,46.05
2022-08-11T06:09:34.757Z,46.14
2022-08-11T06:12:10.790Z,45.93
2022-08-11T06:14:44.750Z,45.99
2022-08-11T06:17:13.733Z,45.82
2022-08-11T06:19:42.317Z,45.99
2022-08-11T06:22:12.082Z,45.67
2022-08-11T06:24:50.892Z,45.34
2022-08-11T06:27:22.315Z,45.37
2022-08-11T06:29:54.429Z,45.31
2022-08-11T06:32:32.447Z,44.73
2022-08-11T06:35:21.434Z,44.70
2022-08-11T06:38:03.434Z,44.59
2022-08-11T06:40:40.974Z,44.65
2022-08-11T06:43:27.064Z,44.38
2022-08-11T06:46:03.210Z,44.42
2022-08-11T06:48:33.101Z,43.99
2022-08-11T06:51:12.467Z,43.65
2022-08-11T06:54:04.681Z,43.16
2022-08-11T06:57:26.201Z,43.09
2022-08-11T07:00:03.754Z,43.06
2022-08-11T07:02:52.002Z,42.79
2022-08-11T07:05:28.902Z,42.30
2022-08-11T07:08:38.720Z,42.39
2022-08-11T07:12:01.660Z,41.87
2022-08-11T07:14:50.102Z,41.63
2022-08-11T07:17:22.778Z,41.35
2022-08-11T07:20:17.184Z,40.92
2022-08-11T07:23:08.401Z,40.90
2022-08-11T07:25:58.622Z,40.44
2022-08-11T07:28:46.752Z,40.32
2022-08-11T07:31:43.469Z,39.90
2022-08-11T07:34:22.744Z,39.50
2022-08-11T07:37:12.573Z,39.29
2022-08-11T07:39:39.913Z,38.97
2022-08-11T07:42:10.764Z,38.90
2022-08-11T07:45:00.206Z,38.61
2022-08-11T07:47:47.023Z,38.40
2022-08-11T07:50:33.376Z,38.03
2022-08-11T07:53:05.183Z,37.46
2022-08-11T07:55:49.548Z,37.33
2022-08-11T07:58:45.416Z,36.95
2022-08-11T08:01:40.205Z,36.73
2022-08-11T08:04:32.601Z,36.39
2022-08-11T08:07:21.129Z,36.13
2022-08-11T08:10:07.985Z,35.93
2022-08-11T08:15:41.494Z,35.60
2022-08-11T08:18:26.596Z,35.00
2022-08-11T08:20:56.739Z,34.55
2022-08-11T08:23:35.847Z,34.25
2022-08-11T08:26:26.379Z,34.04
2022-08-11T08:28:55.143Z,34.12
2022-08-11T08:31:22.486Z,33.59
2022-08-11T08:33:50.046Z,33.51
2022-08-11T08:36:18.616Z,33.16
2022-08-11T08:38:50.878Z,32.59
2022-08-11T08:41:24.894Z,32.69
2022-08-11T08:44:27.827Z,32.68
2022-08-11T08:46:54.175Z,32.47
2022-08-11T08:49:32.279Z,32.40
2022-08-11T08:52:24.225Z,32.14
2022-08-11T08:54:56.718Z,31.38
2022-08-11T08:57:28.096Z,31.18
2022-08-11T08:59:55.239Z,31.36
2022-08-11T09:02:33.873Z,30.71
2022-08-11T09:05:04.050Z,30.48
2022-08-11T09:07:38.602Z,30.47
2022-08-11T09:10:08.378Z,30.55
2022-08-11T09:12:38.719Z,30.05
2022-08-11T09:15:10.284Z,29.43
2022-08-11T09:17:40.606Z,29.58
2022-08-11T09:20:20.855Z,29.51
2022-08-11T09:23:54.595Z,29.28
2022-08-11T09:26:06.734Z,29.33
2022-08-11T09:28:34.379Z,29.12
2022-08-11T09:31:02.095Z,28.96
2022-08-11T09:33:32.828Z,28.46
2022-08-11T09:36:20.751Z,28.48
2022-08-11T09:39:06.730Z,28.25
2022-08-11T09:42:01.131Z,28.10
2022-08-11T09:44:45.864Z,27.88
2022-08-11T09:47:36.138Z,27.77
2022-08-11T09:50:03.490Z,27.36
2022-08-11T09:52:36.059Z,27.69
2022-08-11T09:55:11.003Z,27.51
2022-08-11T09:58:03.678Z,26.98
2022-08-11T10:00:40.215Z,27.28
2022-08-11T10:03:18.119Z,26.70
2022-08-11T10:06:16.803Z,26.60
2022-08-11T10:08:46.050Z,26.84
2022-08-11T10:11:17.107Z,26.47
2022-08-11T10:14:32.845Z,26.69
2022-08-11T10:16:52.091Z,26.62
2022-08-11T10:19:21.984Z,26.32
2022-08-11T10:22:12.146Z,25.79
2022-08-11T10:25:02.705Z,25.50
2022-08-11T10:27:40.349Z,25.16
2022-08-11T10:30:35.314Z,25.04
2022-08-11T10:33:37.535Z,25.13
2022-08-11T10:36:15.982Z,24.76
2022-08-11T10:38:45.824Z,24.71
2022-08-11T10:41:32.233Z,24.57
2022-08-11T10:44:06.303Z,24.18
2022-08-11T10:46:51.683Z,24.47
2022-08-11T10:49:20.325Z,23.58
2022-08-11T10:52:06.103Z,23.83
2022-08-11T10:54:53.065Z,23.60
2022-08-11T10:57:38.885Z,23.50
2022-08-11T11:00:06.957Z,22.73
2022-08-11T11:02:34.821Z,22.82
2022-08-11T11:05:20.791Z,22.52
2022-08-11T11:08:03.797Z,22.61
2022-08-11T11:10:32.090Z,22.63
2022-08-11T11:13:19.885Z,21.95
2022-08-11T11:16:06.495Z,22.35
2022-08-11T11:18:37.903Z,22.03
2022-08-11T11:21:08.450Z,21.70
2022-08-11T11:24:16.428Z,21.17
2022-08-11T11:27:04.023Z,21.12
2022-08-11T11:29:55.860Z,21.30
2022-08-11T11:33:11.318Z,20.93
2022-08-11T11:35:57.381Z,21.22
2022-08-11T11:38:24.290Z,21.05
2022-08-11T11:41:11.378Z,20.66
2022-08-11T11:43:38.589Z,20.98
2022-08-11T11:46:07.696Z,20.48
2022-08-11T11:48:36.061Z,20.41
2022-08-11T11:51:03.317Z,20.14
2022-08-11T11:53:35.461Z,19.82
2022-08-11T11:56:03.310Z,19.78
2022-08-11T11:58:48.600Z,20.14
2022-08-11T12:01:20.842Z,20.05
2022-08-11T12:03:52.858Z,19.75
2022-08-11T12:06:21.878Z,19.76
2022-08-11T12:08:51.098Z,19.48
2022-08-11T12:11:40.067Z,19.24
2022-08-11T12:14:13.403Z,19.17
2022-08-11T12:16:43.239Z,19.54
2022-08-11T12:19:14.276Z,19.51
2022-08-11T12:22:02.225Z,19.62
2022-08-11T12:24:52.642Z,18.97
2022-08-11T12:27:25.510Z,19.31
2022-08-11T12:30:05.854Z,19.18
2022-08-11T12:32:36.438Z,18.72
2022-08-11T12:35:05.159Z,18.44
2022-08-11T12:37:36.959Z,18.21
2022-08-11T12:40:43.076Z,18.45
2022-08-11T12:44:01.303Z,18.82
2022-08-11T12:46:37.608Z,18.30
2022-08-11T12:49:32.623Z,18.07
2022-08-11T12:52:13.229Z,17.90
2022-08-11T12:55:02.985Z,17.82
2022-08-11T12:57:54.143Z,18.11
2022-08-11T13:00:40.601Z,17.78
2022-08-11T13:03:32.467Z,17.47
2022-08-11T13:06:02.587Z,17.89
2022-08-11T13:08:33.128Z,17.73
2022-08-11T13:11:20.899Z,17.01
2022-08-11T13:13:57.528Z,16.99
2022-08-11T13:16:53.920Z,17.41
2022-08-11T13:19:21.964Z,17.46
2022-08-11T13:21:50.789Z,17.03
2022-08-11T13:24:19.009Z,16.88
2022-08-11T13:26:49.419Z,16.92
2022-08-11T13:29:25.251Z,16.40
2022-08-11T13:31:54.376Z,16.54
2022-08-11T13:34:22.958Z,16.67
2022-08-11T13:36:56.618Z,16.63
2022-08-11T13:39:26.961Z,16.30
2022-08-11T13:41:56.653Z,16.61
2022-08-11T13:44:35.928Z,16.13
2022-08-11T13:47:04.758Z,16.55
2022-08-11T13:49:34.902Z,16.39
2022-08-11T13:52:03.119Z,16.12
2022-08-11T13:54:35.533Z,16.60
2022-08-11T13:57:09.069Z,16.44
2022-08-11T13:59:52.044Z,16.54
2022-08-11T14:02:29.259Z,16.17
2022-08-11T14:05:02.884Z,16.21
2022-08-11T14:07:37.989Z,16.60
2022-08-11T14:10:07.220Z,16.44
2022-08-11T14:15:25.287Z,16.67
2022-08-11T14:17:57.348Z,16.59
2022-08-11T14:20:39.288Z,16.54
2022-08-11T14:23:14.153Z,16.21
2022-08-11T14:26:02.449Z,15.86
2022-08-11T14:28:37.551Z,15.85
2022-08-11T14:31:08.510Z,16.12
2022-08-11T14:33:58.389Z,15.75
2022-08-11T14:36:26.216Z,16.25
2022-08-11T14:38:54.630Z,16.34
2022-08-11T14:42:10.862Z,16.46
2022-08-11T14:44:50.272Z,16.00
2022-08-11T14:47:24.387Z,16.34
2022-08-11T14:50:09.732Z,16.11
2022-08-11T14:52:43.817Z,16.15
2022-08-11T14:55:30.291Z,16.00
2022-08-11T14:57:57.441Z,16.00
2022-08-11T15:00:25.423Z,15.65
2022-08-11T15:03:12.948Z,15.83
2022-08-11T15:05:57.488Z,16.04
2022-08-11T15:08:46.287Z,16.04
2022-08-11T15:11:33.661Z,16.17
2022-08-11T15:14:03.002Z,15.96
2022-08-11T15:16:48.521Z,16.08
2022-08-11T15:19:16.766Z,16.49
2022-08-11T15:22:02.231Z,16.56
2022-08-11T15:24:30.593Z,16.65
2022-08-11T15:27:19.218Z,16.67
2022-08-11T15:30:06.552Z,16.55
2022-08-11T15:35:56.294Z,16.42
2022-08-11T15:38:25.319Z,16.31
2022-08-11T15:41:14.843Z,16.41
2022-08-11T15:44:09.997Z,16.57
2022-08-11T15:46:47.463Z,16.38
2022-08-11T15:50:11.999Z,16.80
2022-08-11T15:52:21.429Z,16.46
2022-08-11T15:54:49.341Z,16.38
2022-08-11T15:57:40.116Z,16.41
2022-08-11T16:00:26.793Z,16.32
2022-08-11T16:04:05.627Z,16.61
2022-08-11T16:06:16.600Z,16.53
2022-08-11T16:08:44.961Z,16.62
2022-08-11T16:11:13.241Z,16.64
2022-08-11T16:13:43.689Z,16.74
2022-08-11T16:16:14.613Z,16.79
2022-08-11T16:18:52.133Z,17.29
2022-08-11T16:21:35.271Z,17.07
2022-08-11T16:27:06.892Z,17.50
2022-08-11T16:27:10.383Z,17.79
2022-08-11T16:29:43.608Z,17.67
2022-08-11T16:32:18.464Z,17.68
2022-08-11T16:35:08.938Z,17.37
2022-08-11T16:37:55.773Z,17.88
2022-08-11T16:40:23.289Z,17.93
2022-08-11T16:43:11.908Z,17.74
2022-08-11T16:45:59.674Z,17.96
2022-08-11T16:48:35.194Z,18.13
2022-08-11T16:51:10.254Z,18.19
2022-08-11T16:54:04.009Z,18.21
2022-08-11T16:56:45.962Z,18.12
2022-08-11T16:59:30.540Z,18.37
2022-08-11T17:02:02.208Z,18.46
2022-08-11T17:05:00.739Z,18.36
2022-08-11T17:07:48.242Z,18.76
2022-08-11T17:10:50.783Z,18.50
2022-08-11T17:13:25.909Z,18.87
2022-08-11T17:16:08.901Z,19.21
2022-08-11T17:18:44.861Z,18.97
2022-08-11T17:21:20.197Z,19.17
2022-08-11T17:23:54.770Z,19.02
2022-08-11T17:26:52.013Z,19.21
2022-08-11T17:29:24.898Z,19.75
2022-08-11T17:32:11.602Z,19.80
2022-08-11T17:35:00.935Z,19.55
2022-08-11T17:37:31.086Z,19.94
2022-08-11T17:39:59.794Z,19.91
2022-08-11T17:42:48.307Z,19.86
2022-08-11T17:45:35.677Z,19.69
2022-08-11T17:48:22.014Z,19.86
2022-08-11T17:50:49.438Z,20.06
2022-08-11T17:53:39.696Z,20.44
2022-08-11T17:56:26.469Z,20.37
2022-08-11T17:59:12.985Z,20.81
2022-08-11T18:01:41.708Z,20.56
2022-08-11T18:04:15.131Z,21.07
2022-08-11T18:06:43.613Z,21.36
2022-08-11T18:09:38.121Z,21.05
2022-08-11T18:12:25.536Z,21.35
2022-08-11T18:15:13.259Z,21.40
2022-08-11T18:17:59.366Z,21.58
2022-08-11T18:20:45.600Z,21.84
2022-08-11T18:23:46.797Z,21.97
2022-08-11T18:26:38.053Z,22.23
2022-08-11T18:29:26.248Z,22.37
2022-08-11T18:32:21.104Z,22.38
2022-08-11T18:35:10.842Z,22.76
2022-08-11T18:38:02.047Z,22.80
2022-08-11T18:40:48.034Z,23.40
2022-08-11T18:43:39.799Z,23.57
2022-08-11T18:46:27.146Z,23.36
2022-08-11T18:49:19.449Z,23.62
2022-08-11T18:52:07.120Z,24.08
2022-08-11T18:54:56.270Z,23.92
2022-08-11T18:57:49.512Z,24.22
2022-08-11T19:00:40.990Z,24.30
2022-08-11T19:03:30.931Z,24.52
2022-08-11T19:06:38.345Z,24.66
2022-08-11T19:09:30.578Z,24.74
2022-08-11T19:12:17.521Z,24.78
2022-08-11T19:15:05.012Z,25.05
2022-08-11T19:17:53.689Z,24.99
2022-08-11T19:20:41.790Z,25.24
2022-08-11T19:23:35.092Z,25.52
2022-08-11T19:26:22.565Z,25.54
2022-08-11T19:29:09.342Z,25.85
2022-08-11T19:32:16.503Z,26.11
2022-08-11T19:35:02.051Z,26.22
2022-08-11T19:37:47.743Z,26.27
2022-08-11T19:40:33.841Z,26.47
2022-08-11T19:43:25.937Z,26.87
2022-08-11T19:46:16.119Z,26.93
2022-08-11T19:49:04.090Z,27.21
2022-08-11T19:51:53.970Z,27.18
2022-08-11T19:54:50.540Z,27.71
2022-08-11T19:57:40.265Z,27.54
2022-08-11T20:00:37.762Z,28.15
2022-08-11T20:03:29.483Z,28.26
2022-08-11T20:06:17.774Z,28.34
2022-08-11T20:09:05.576Z,28.54
2022-08-11T20:11:55.782Z,28.89
2022-08-11T20:14:45.657Z,28.82
2022-08-11T20:17:32.270Z,28.99
2022-08-11T20:20:21.518Z,29.20
2022-08-11T20:23:18.281Z,28.95
2022-08-11T20:26:27.590Z,29.20
2022-08-11T20:29:12.394Z,29.24
2022-08-11T20:31:59.848Z,29.39
2022-08-11T20:34:50.903Z,29.37
2022-08-11T20:37:39.027Z,29.68
2022-08-11T20:40:25.376Z,29.73
2022-08-11T20:44:06.262Z,29.86
2022-08-11T20:46:25.121Z,29.91
2022-08-11T20:49:12.061Z,30.10
2022-08-11T20:51:58.570Z,30.34
2022-08-11T20:54:45.590Z,30.17
2022-08-11T20:57:59.299Z,30.27
2022-08-11T21:00:44.074Z,30.23
2022-08-11T21:03:35.695Z,30.30
2022-08-11T21:06:32.826Z,30.26
2022-08-11T21:09:58.598Z,30.59
2022-08-11T21:15:39.192Z,30.72
2022-08-11T21:18:28.291Z,30.71
2022-08-11T21:21:18.007Z,31.01
2022-08-11T21:24:09.556Z,31.23
2022-08-11T21:27:03.795Z,31.49
2022-08-11T21:29:52.530Z,31.40
2022-08-11T21:32:39.188Z,31.44
2022-08-11T21:35:27.715Z,32.04
2022-08-11T21:38:14.250Z,32.03
2022-08-11T21:41:00.915Z,32.07
2022-08-11T21:43:50.267Z,32.40
2022-08-11T21:46:39.330Z,32.74
2022-08-11T21:49:27.347Z,32.72
2022-08-11T21:52:12.630Z,32.82
2022-08-11T21:54:58.632Z,33.24
2022-08-11T21:57:47.967Z,33.14
2022-08-11T22:00:34.605Z,33.40
2022-08-11T22:03:49.825Z,33.65
2022-08-11T22:06:36.783Z,33.60
2022-08-11T22:09:22.615Z,33.78
2022-08-11T22:12:33.790Z,33.85
2022-08-11T22:15:14.966Z,33.96
2022-08-11T22:18:00.227Z,33.88
2022-08-11T22:20:47.006Z,34.28
2022-08-11T22:23:38.753Z,34.55
2022-08-11T22:26:24.306Z,34.40
2022-08-11T22:29:09.944Z,34.65
2022-08-11T22:31:56.258Z,34.32
2022-08-11T22:34:52.738Z,33.97
2022-08-11T22:37:40.442Z,34.09
2022-08-11T22:40:28.078Z,34.30
2022-08-11T22:43:18.160Z,34.53
2022-08-11T22:46:03.272Z,34.57
2022-08-11T22:48:49.822Z,34.80
2022-08-11T22:51:38.348Z,34.57
2022-08-11T22:54:28.779Z,34.67
2022-08-11T22:57:14.838Z,34.65
2022-08-11T23:00:01.361Z,35.10
2022-08-11T23:02:47.629Z,34.95
2022-08-11T23:05:37.804Z,35.25
2022-08-11T23:08:23.421Z,35.05
2022-08-11T23:11:09.350Z,35.45
2022-08-11T23:13:58.309Z,35.47
2022-08-11T23:16:44.026Z,35.55
2022-08-11T23:20:06.728Z,35.55
2022-08-11T23:22:43.777Z,35.43
2022-08-11T23:25:35.823Z,35.63
2022-08-11T23:28:21.795Z,35.97
2022-08-11T23:31:12.166Z,36.06
2022-08-11T23:34:01.648Z,36.33
2022-08-11T23:36:47.356Z,36.37
2022-08-11T23:39:33.620Z,36.57
2022-08-11T23:42:18.954Z,36.21
2022-08-11T23:45:07.177Z,36.65
2022-08-11T23:47:57.424Z,36.54
2022-08-11T23:50:44.058Z,36.53
2022-08-11T23:53:32.710Z,36.65
2022-08-11T23:56:21.720Z,36.58
2022-08-11T23:59:09.037Z,36.67
